Blackwell, Wisconsin
Current Conditions -  °F | °C
As of 4:54 PM on Tuesday 27 Jan 2015 (Local Time) from KIMT Reporting Station
Overcast Overcast  
Wind Chill: 23°   Ceiling: 2100
Heat Index: 23°   Visibility: 10mi
Dew Point: 16°   Wind: 3mph
Humidity: 74%   Direction: 170°S
Pressure: 30.19"   Gusts: NA
Location:  45.5665°N, 88.6366°W
Report Text: KIMT 272254Z AUTO 17003KT 10SM OVC021 M05/M09 A3019 RMK AO2 SLP246 T10501089
Loading
Personal Weather Stations






























Interactive Weather Map New forecast layout! Learn more

10-Day Weather Forecast

Advertisements
Track Severe Weather on mobile